sensor_id;sensor_type;location;lat;lon;timestamp;temperature;humidity
5796;DHT22;2924;51.458;7.046;2023-01-28T00:01:46;1.30;99.90
5796;DHT22;2924;51.458;7.046;2023-01-28T00:04:11;1.30;99.90
5796;DHT22;2924;51.458;7.046;2023-01-28T00:06:37;1.30;99.90
5796;DHT22;2924;51.458;7.046;2023-01-28T00:09:03;1.30;99.90
5796;DHT22;2924;51.458;7.046;2023-01-28T00:11:28;1.30;99.90
5796;DHT22;2924;51.458;7.046;2023-01-28T00:13:54;1.30;99.90
5796;DHT22;2924;51.458;7.046;2023-01-28T00:16:20;1.30;99.90
5796;DHT22;2924;51.458;7.046;2023-01-28T00:18:51;1.30;99.90
5796;DHT22;2924;51.458;7.046;2023-01-28T00:21:17;1.20;99.90
5796;DHT22;2924;51.458;7.046;2023-01-28T00:23:47;1.20;99.90
5796;DHT22;2924;51.458;7.046;2023-01-28T00:26:15;1.30;99.90
5796;DHT22;2924;51.458;7.046;2023-01-28T00:28:42;1.30;99.90
5796;DHT22;2924;51.458;7.046;2023-01-28T00:31:19;1.30;99.90
5796;DHT22;2924;51.458;7.046;2023-01-28T00:33:47;1.30;99.90
5796;DHT22;2924;51.458;7.046;2023-01-28T00:36:14;1.20;99.90
5796;DHT22;2924;51.458;7.046;2023-01-28T00:38:40;1.20;99.90
5796;DHT22;2924;51.458;7.046;2023-01-28T00:41:12;1.20;99.90
5796;DHT22;2924;51.458;7.046;2023-01-28T00:43:38;1.20;99.90
5796;DHT22;2924;51.458;7.046;2023-01-28T00:46:05;1.20;99.90
5796;DHT22;2924;51.458;7.046;2023-01-28T00:48:35;1.20;99.90
5796;DHT22;2924;51.458;7.046;2023-01-28T00:51:02;1.20;99.90
5796;DHT22;2924;51.458;7.046;2023-01-28T00:53:28;1.20;99.90
5796;DHT22;2924;51.458;7.046;2023-01-28T00:55:54;1.20;99.90
5796;DHT22;2924;51.458;7.046;2023-01-28T00:58:20;1.20;99.90
5796;DHT22;2924;51.458;7.046;2023-01-28T01:00:48;1.20;99.90
5796;DHT22;2924;51.458;7.046;2023-01-28T01:03:14;1.30;99.90
5796;DHT22;2924;51.458;7.046;2023-01-28T01:05:40;1.20;99.90
5796;DHT22;2924;51.458;7.046;2023-01-28T01:08:06;1.30;99.90
5796;DHT22;2924;51.458;7.046;2023-01-28T01:10:31;1.30;99.90
5796;DHT22;2924;51.458;7.046;2023-01-28T01:12:57;1.20;99.90
5796;DHT22;2924;51.458;7.046;2023-01-28T01:15:23;1.20;99.90
5796;DHT22;2924;51.458;7.046;2023-01-28T01:17:49;1.10;99.90
5796;DHT22;2924;51.458;7.046;2023-01-28T01:20:18;1.10;99.90
5796;DHT22;2924;51.458;7.046;2023-01-28T01:22:44;1.10;99.90
5796;DHT22;2924;51.458;7.046;2023-01-28T01:25:12;1.20;99.90
5796;DHT22;2924;51.458;7.046;2023-01-28T01:27:37;1.10;99.90
5796;DHT22;2924;51.458;7.046;2023-01-28T01:30:03;1.10;99.90
5796;DHT22;2924;51.458;7.046;2023-01-28T01:32:30;1.10;99.90
5796;DHT22;2924;51.458;7.046;2023-01-28T01:34:56;1.10;99.90
5796;DHT22;2924;51.458;7.046;2023-01-28T01:37:22;1.10;99.90
5796;DHT22;2924;51.458;7.046;2023-01-28T01:39:47;1.10;99.90
5796;DHT22;2924;51.458;7.046;2023-01-28T01:42:14;1.10;99.90
5796;DHT22;2924;51.458;7.046;2023-01-28T01:45:11;1.20;99.90
5796;DHT22;2924;51.458;7.046;2023-01-28T01:47:56;1.20;99.90
5796;DHT22;2924;51.458;7.046;2023-01-28T01:50:48;1.20;99.90
5796;DHT22;2924;51.458;7.046;2023-01-28T01:53:18;1.10;99.90
5796;DHT22;2924;51.458;7.046;2023-01-28T01:55:48;0.90;99.90
5796;DHT22;2924;51.458;7.046;2023-01-28T01:58:17;0.90;99.90
5796;DHT22;2924;51.458;7.046;2023-01-28T02:00:43;0.90;99.90
5796;DHT22;2924;51.458;7.046;2023-01-28T02:03:10;0.90;99.90
5796;DHT22;2924;51.458;7.046;2023-01-28T02:05:36;0.90;99.90
5796;DHT22;2924;51.458;7.046;2023-01-28T02:08:03;0.90;99.90
5796;DHT22;2924;51.458;7.046;2023-01-28T02:13:18;1.00;99.90
5796;DHT22;2924;51.458;7.046;2023-01-28T02:15:45;1.00;99.90
5796;DHT22;2924;51.458;7.046;2023-01-28T02:18:11;1.00;99.90
5796;DHT22;2924;51.458;7.046;2023-01-28T02:21:40;1.00;99.90
5796;DHT22;2924;51.458;7.046;2023-01-28T02:29:25;1.00;99.90
5796;DHT22;2924;51.458;7.046;2023-01-28T02:32:13;1.00;99.90
5796;DHT22;2924;51.458;7.046;2023-01-28T02:37:22;0.90;99.90
5796;DHT22;2924;51.458;7.046;2023-01-28T02:39:58;0.80;99.90
5796;DHT22;2924;51.458;7.046;2023-01-28T02:42:31;0.80;99.90
5796;DHT22;2924;51.458;7.046;2023-01-28T02:44:57;0.80;99.90
5796;DHT22;2924;51.458;7.046;2023-01-28T02:47:22;0.80;99.90
5796;DHT22;2924;51.458;7.046;2023-01-28T02:50:13;0.80;99.90
5796;DHT22;2924;51.458;7.046;2023-01-28T03:01:18;0.80;99.90
5796;DHT22;2924;51.458;7.046;2023-01-28T03:03:57;0.80;99.90
5796;DHT22;2924;51.458;7.046;2023-01-28T03:06:28;0.80;99.90
5796;DHT22;2924;51.458;7.046;2023-01-28T03:09:01;0.80;99.90
5796;DHT22;2924;51.458;7.046;2023-01-28T03:12:04;0.80;99.90
5796;DHT22;2924;51.458;7.046;2023-01-28T03:14:59;0.80;99.90
5796;DHT22;2924;51.458;7.046;2023-01-28T03:17:57;0.80;99.90
5796;DHT22;2924;51.458;7.046;2023-01-28T03:21:10;0.70;99.90
5796;DHT22;2924;51.458;7.046;2023-01-28T03:24:13;0.70;99.90
5796;DHT22;2924;51.458;7.046;2023-01-28T03:27:09;0.70;99.90
5796;DHT22;2924;51.458;7.046;2023-01-28T03:29:58;0.70;99.90
5796;DHT22;2924;51.458;7.046;2023-01-28T03:32:44;0.70;99.90
5796;DHT22;2924;51.458;7.046;2023-01-28T03:35:30;0.70;99.90
5796;DHT22;2924;51.458;7.046;2023-01-28T03:38:16;0.70;99.90
5796;DHT22;2924;51.458;7.046;2023-01-28T03:40:56;0.70;99.90
5796;DHT22;2924;51.458;7.046;2023-01-28T03:43:22;0.70;99.90
5796;DHT22;2924;51.458;7.046;2023-01-28T03:45:48;0.70;99.90
5796;DHT22;2924;51.458;7.046;2023-01-28T03:48:18;0.70;99.90
5796;DHT22;2924;51.458;7.046;2023-01-28T03:50:44;0.70;99.90
5796;DHT22;2924;51.458;7.046;2023-01-28T03:53:10;0.70;99.90
5796;DHT22;2924;51.458;7.046;2023-01-28T03:55:40;0.60;99.90
5796;DHT22;2924;51.458;7.046;2023-01-28T03:58:07;0.60;99.90
5796;DHT22;2924;51.458;7.046;2023-01-28T04:00:33;0.60;99.90
5796;DHT22;2924;51.458;7.046;2023-01-28T04:03:02;0.70;99.90
5796;DHT22;2924;51.458;7.046;2023-01-28T04:05:28;0.70;99.90
5796;DHT22;2924;51.458;7.046;2023-01-28T04:07:54;0.70;99.90
5796;DHT22;2924;51.458;7.046;2023-01-28T04:10:20;0.70;99.90
5796;DHT22;2924;51.458;7.046;2023-01-28T04:12:46;0.70;99.90
5796;DHT22;2924;51.458;7.046;2023-01-28T04:15:15;0.70;99.90
5796;DHT22;2924;51.458;7.046;2023-01-28T04:17:47;0.60;99.90
5796;DHT22;2924;51.458;7.046;2023-01-28T04:20:14;0.70;99.90
5796;DHT22;2924;51.458;7.046;2023-01-28T04:22:40;0.70;99.90
5796;DHT22;2924;51.458;7.046;2023-01-28T04:25:06;0.70;99.90
5796;DHT22;2924;51.458;7.046;2023-01-28T04:27:32;0.60;99.90
5796;DHT22;2924;51.458;7.046;2023-01-28T04:29:57;0.60;99.90
5796;DHT22;2924;51.458;7.046;2023-01-28T04:32:23;0.60;99.90
5796;DHT22;2924;51.458;7.046;2023-01-28T04:34:48;0.60;99.90
5796;DHT22;2924;51.458;7.046;2023-01-28T04:37:14;0.60;99.90
5796;DHT22;2924;51.458;7.046;2023-01-28T04:39:40;0.60;99.90
5796;DHT22;2924;51.458;7.046;2023-01-28T04:42:05;0.70;99.90
5796;DHT22;2924;51.458;7.046;2023-01-28T04:44:31;0.70;99.90
5796;DHT22;2924;51.458;7.046;2023-01-28T04:46:56;0.60;99.90
5796;DHT22;2924;51.458;7.046;2023-01-28T04:49:22;0.60;99.90
5796;DHT22;2924;51.458;7.046;2023-01-28T04:51:48;0.70;99.90
5796;DHT22;2924;51.458;7.046;2023-01-28T04:54:13;0.60;99.90
5796;DHT22;2924;51.458;7.046;2023-01-28T04:56:39;0.60;99.90
5796;DHT22;2924;51.458;7.046;2023-01-28T04:59:04;0.70;99.90
5796;DHT22;2924;51.458;7.046;2023-01-28T05:01:30;0.60;99.90
5796;DHT22;2924;51.458;7.046;2023-01-28T05:03:56;0.70;99.90
5796;DHT22;2924;51.458;7.046;2023-01-28T05:06:22;0.60;99.90
5796;DHT22;2924;51.458;7.046;2023-01-28T05:08:47;0.70;99.90
5796;DHT22;2924;51.458;7.046;2023-01-28T05:11:13;0.70;99.90
5796;DHT22;2924;51.458;7.046;2023-01-28T05:13:39;0.60;99.90
5796;DHT22;2924;51.458;7.046;2023-01-28T05:16:05;0.50;99.90
5796;DHT22;2924;51.458;7.046;2023-01-28T05:18:31;0.50;99.90
5796;DHT22;2924;51.458;7.046;2023-01-28T05:20:57;0.50;99.90
5796;DHT22;2924;51.458;7.046;2023-01-28T05:23:23;0.50;99.90
5796;DHT22;2924;51.458;7.046;2023-01-28T05:25:48;0.50;99.90
5796;DHT22;2924;51.458;7.046;2023-01-28T05:28:15;0.50;99.90
5796;DHT22;2924;51.458;7.046;2023-01-28T05:30:41;0.60;99.90
5796;DHT22;2924;51.458;7.046;2023-01-28T05:33:06;0.50;99.90
5796;DHT22;2924;51.458;7.046;2023-01-28T05:35:32;0.50;99.90
5796;DHT22;2924;51.458;7.046;2023-01-28T05:37:58;0.50;99.90
5796;DHT22;2924;51.458;7.046;2023-01-28T05:40:23;0.40;99.90
5796;DHT22;2924;51.458;7.046;2023-01-28T05:42:49;0.40;99.90
5796;DHT22;2924;51.458;7.046;2023-01-28T05:45:15;0.40;99.90
5796;DHT22;2924;51.458;7.046;2023-01-28T05:47:41;0.40;99.90
5796;DHT22;2924;51.458;7.046;2023-01-28T05:50:07;0.40;99.90
5796;DHT22;2924;51.458;7.046;2023-01-28T05:52:33;0.40;99.90
5796;DHT22;2924;51.458;7.046;2023-01-28T05:54:59;0.30;99.90
5796;DHT22;2924;51.458;7.046;2023-01-28T05:57:25;0.40;99.90
5796;DHT22;2924;51.458;7.046;2023-01-28T05:59:51;0.30;99.90
5796;DHT22;2924;51.458;7.046;2023-01-28T06:02:17;0.40;99.90
5796;DHT22;2924;51.458;7.046;2023-01-28T06:04:42;0.40;99.90
5796;DHT22;2924;51.458;7.046;2023-01-28T06:07:08;0.50;99.90
5796;DHT22;2924;51.458;7.046;2023-01-28T06:09:33;0.40;99.90
5796;DHT22;2924;51.458;7.046;2023-01-28T06:11:59;0.40;99.90
5796;DHT22;2924;51.458;7.046;2023-01-28T06:14:25;0.40;99.90
5796;DHT22;2924;51.458;7.046;2023-01-28T06:16:50;0.30;99.90
5796;DHT22;2924;51.458;7.046;2023-01-28T06:19:16;0.20;99.90
5796;DHT22;2924;51.458;7.046;2023-01-28T06:21:42;0.20;99.90
5796;DHT22;2924;51.458;7.046;2023-01-28T06:24:08;0.30;99.90
5796;DHT22;2924;51.458;7.046;2023-01-28T06:26:33;0.30;99.90
5796;DHT22;2924;51.458;7.046;2023-01-28T06:28:59;0.20;99.90
5796;DHT22;2924;51.458;7.046;2023-01-28T06:31:25;0.20;99.90
5796;DHT22;2924;51.458;7.046;2023-01-28T06:33:50;0.20;99.90
5796;DHT22;2924;51.458;7.046;2023-01-28T06:36:16;0.30;99.90
5796;DHT22;2924;51.458;7.046;2023-01-28T06:38:42;0.20;99.90
5796;DHT22;2924;51.458;7.046;2023-01-28T06:41:07;0.20;99.90
5796;DHT22;2924;51.458;7.046;2023-01-28T06:43:33;0.20;99.90
5796;DHT22;2924;51.458;7.046;2023-01-28T06:45:59;0.10;99.90
5796;DHT22;2924;51.458;7.046;2023-01-28T06:48:25;0.10;99.90
5796;DHT22;2924;51.458;7.046;2023-01-28T06:50:52;0.10;99.90
5796;DHT22;2924;51.458;7.046;2023-01-28T06:53:18;0.10;99.90
5796;DHT22;2924;51.458;7.046;2023-01-28T06:55:44;0.00;99.90
5796;DHT22;2924;51.458;7.046;2023-01-28T06:58:10;0.00;99.90
5796;DHT22;2924;51.458;7.046;2023-01-28T07:00:36;-0.10;99.90
5796;DHT22;2924;51.458;7.046;2023-01-28T07:03:02;-0.10;99.90
5796;DHT22;2924;51.458;7.046;2023-01-28T07:05:28;-0.20;99.90
5796;DHT22;2924;51.458;7.046;2023-01-28T07:07:54;-0.30;99.90
5796;DHT22;2924;51.458;7.046;2023-01-28T07:10:19;-0.20;99.90
5796;DHT22;2924;51.458;7.046;2023-01-28T07:12:45;-0.20;99.90
5796;DHT22;2924;51.458;7.046;2023-01-28T07:15:10;-0.30;99.90
5796;DHT22;2924;51.458;7.046;2023-01-28T07:17:42;-0.20;99.90
5796;DHT22;2924;51.458;7.046;2023-01-28T07:20:10;-0.20;99.90
5796;DHT22;2924;51.458;7.046;2023-01-28T07:22:37;-0.20;99.90
5796;DHT22;2924;51.458;7.046;2023-01-28T07:25:05;-0.20;99.90
5796;DHT22;2924;51.458;7.046;2023-01-28T07:27:31;-0.20;99.90
5796;DHT22;2924;51.458;7.046;2023-01-28T07:29:57;-0.20;99.90
5796;DHT22;2924;51.458;7.046;2023-01-28T07:32:22;-0.30;99.90
5796;DHT22;2924;51.458;7.046;2023-01-28T07:34:51;-0.20;99.90
5796;DHT22;2924;51.458;7.046;2023-01-28T07:37:16;-0.30;99.90
5796;DHT22;2924;51.458;7.046;2023-01-28T07:39:42;-0.30;99.90
5796;DHT22;2924;51.458;7.046;2023-01-28T07:42:07;-0.30;99.90
5796;DHT22;2924;51.458;7.046;2023-01-28T07:44:34;-0.30;99.90
5796;DHT22;2924;51.458;7.046;2023-01-28T07:47:02;-0.30;99.90
5796;DHT22;2924;51.458;7.046;2023-01-28T07:49:27;-0.30;99.90
5796;DHT22;2924;51.458;7.046;2023-01-28T07:51:53;-0.30;99.90
5796;DHT22;2924;51.458;7.046;2023-01-28T07:54:18;-0.20;99.90
5796;DHT22;2924;51.458;7.046;2023-01-28T07:56:44;-0.20;99.90
5796;DHT22;2924;51.458;7.046;2023-01-28T07:59:10;-0.20;99.90
5796;DHT22;2924;51.458;7.046;2023-01-28T08:01:35;-0.30;99.90
5796;DHT22;2924;51.458;7.046;2023-01-28T08:04:01;-0.30;99.90
5796;DHT22;2924;51.458;7.046;2023-01-28T08:06:29;-0.20;99.90
5796;DHT22;2924;51.458;7.046;2023-01-28T08:08:55;-0.20;99.90
5796;DHT22;2924;51.458;7.046;2023-01-28T08:11:21;0.00;99.90
5796;DHT22;2924;51.458;7.046;2023-01-28T08:13:49;0.10;99.90
5796;DHT22;2924;51.458;7.046;2023-01-28T08:16:14;0.20;99.90
5796;DHT22;2924;51.458;7.046;2023-01-28T08:18:40;0.30;99.90
5796;DHT22;2924;51.458;7.046;2023-01-28T08:21:06;0.40;99.90
5796;DHT22;2924;51.458;7.046;2023-01-28T08:23:31;0.30;99.90
5796;DHT22;2924;51.458;7.046;2023-01-28T08:25:59;0.30;99.90
5796;DHT22;2924;51.458;7.046;2023-01-28T08:28:25;0.40;99.90
5796;DHT22;2924;51.458;7.046;2023-01-28T08:30:51;0.40;99.90
5796;DHT22;2924;51.458;7.046;2023-01-28T08:33:18;0.40;99.90
5796;DHT22;2924;51.458;7.046;2023-01-28T08:35:44;0.50;99.90
5796;DHT22;2924;51.458;7.046;2023-01-28T08:38:11;0.50;99.90
5796;DHT22;2924;51.458;7.046;2023-01-28T08:40:38;0.50;99.90
5796;DHT22;2924;51.458;7.046;2023-01-28T08:43:03;0.60;99.90
5796;DHT22;2924;51.458;7.046;2023-01-28T08:45:29;0.70;99.90
5796;DHT22;2924;51.458;7.046;2023-01-28T08:48:03;0.90;99.90
5796;DHT22;2924;51.458;7.046;2023-01-28T08:50:31;1.00;99.90
5796;DHT22;2924;51.458;7.046;2023-01-28T08:53:00;1.00;99.90
5796;DHT22;2924;51.458;7.046;2023-01-28T08:55:27;1.00;99.90
5796;DHT22;2924;51.458;7.046;2023-01-28T08:57:53;1.10;99.90
5796;DHT22;2924;51.458;7.046;2023-01-28T09:00:19;1.10;99.90
5796;DHT22;2924;51.458;7.046;2023-01-28T09:02:46;1.10;99.90
5796;DHT22;2924;51.458;7.046;2023-01-28T09:05:11;1.10;99.90
5796;DHT22;2924;51.458;7.046;2023-01-28T09:07:37;1.10;99.90
5796;DHT22;2924;51.458;7.046;2023-01-28T09:10:04;1.10;99.90
5796;DHT22;2924;51.458;7.046;2023-01-28T09:12:30;1.20;99.90
5796;DHT22;2924;51.458;7.046;2023-01-28T09:14:56;1.20;99.90
5796;DHT22;2924;51.458;7.046;2023-01-28T09:17:22;1.20;99.90
5796;DHT22;2924;51.458;7.046;2023-01-28T09:19:48;1.20;99.90
5796;DHT22;2924;51.458;7.046;2023-01-28T09:22:14;1.20;99.90
5796;DHT22;2924;51.458;7.046;2023-01-28T09:24:39;1.30;99.90
5796;DHT22;2924;51.458;7.046;2023-01-28T09:27:05;1.30;99.90
5796;DHT22;2924;51.458;7.046;2023-01-28T09:29:33;1.30;99.90
5796;DHT22;2924;51.458;7.046;2023-01-28T09:31:59;1.40;99.90
5796;DHT22;2924;51.458;7.046;2023-01-28T09:34:24;1.50;99.90
5796;DHT22;2924;51.458;7.046;2023-01-28T09:36:50;1.60;99.90
5796;DHT22;2924;51.458;7.046;2023-01-28T09:39:16;1.70;99.90
5796;DHT22;2924;51.458;7.046;2023-01-28T09:47:10;1.50;99.90
5796;DHT22;2924;51.458;7.046;2023-01-28T09:49:42;1.50;99.90
5796;DHT22;2924;51.458;7.046;2023-01-28T09:52:18;1.50;99.90
5796;DHT22;2924;51.458;7.046;2023-01-28T09:54:49;1.50;99.90
5796;DHT22;2924;51.458;7.046;2023-01-28T09:57:23;1.40;99.90
5796;DHT22;2924;51.458;7.046;2023-01-28T09:59:49;1.60;99.90
5796;DHT22;2924;51.458;7.046;2023-01-28T10:10:32;1.70;99.90
5796;DHT22;2924;51.458;7.046;2023-01-28T10:14:02;1.80;99.90
5796;DHT22;2924;51.458;7.046;2023-01-28T10:16:34;2.00;99.90
5796;DHT22;2924;51.458;7.046;2023-01-28T10:19:26;2.10;99.90
5796;DHT22;2924;51.458;7.046;2023-01-28T10:22:00;2.10;99.90
5796;DHT22;2924;51.458;7.046;2023-01-28T10:24:34;1.90;99.90
5796;DHT22;2924;51.458;7.046;2023-01-28T10:27:01;2.00;99.90
5796;DHT22;2924;51.458;7.046;2023-01-28T10:29:33;2.00;99.90
5796;DHT22;2924;51.458;7.046;2023-01-28T10:34:55;2.30;99.90
5796;DHT22;2924;51.458;7.046;2023-01-28T10:37:24;2.40;99.90
5796;DHT22;2924;51.458;7.046;2023-01-28T10:39:52;2.50;99.90
5796;DHT22;2924;51.458;7.046;2023-01-28T10:42:34;2.70;99.90
5796;DHT22;2924;51.458;7.046;2023-01-28T10:47:47;3.00;99.90
5796;DHT22;2924;51.458;7.046;2023-01-28T10:50:33;3.00;99.90
5796;DHT22;2924;51.458;7.046;2023-01-28T10:53:04;3.10;99.90
5796;DHT22;2924;51.458;7.046;2023-01-28T10:55:36;3.00;99.90
5796;DHT22;2924;51.458;7.046;2023-01-28T10:58:17;2.90;99.90
5796;DHT22;2924;51.458;7.046;2023-01-28T11:00:44;2.80;99.90
5796;DHT22;2924;51.458;7.046;2023-01-28T11:03:19;2.70;99.90
5796;DHT22;2924;51.458;7.046;2023-01-28T11:05:52;2.70;99.90
5796;DHT22;2924;51.458;7.046;2023-01-28T11:08:19;2.80;99.90
5796;DHT22;2924;51.458;7.046;2023-01-28T11:10:47;2.80;99.90
5796;DHT22;2924;51.458;7.046;2023-01-28T11:13:18;2.70;99.90
5796;DHT22;2924;51.458;7.046;2023-01-28T11:16:04;2.60;99.90
5796;DHT22;2924;51.458;7.046;2023-01-28T11:18:51;2.60;99.90
5796;DHT22;2924;51.458;7.046;2023-01-28T11:21:24;2.50;99.90
5796;DHT22;2924;51.458;7.046;2023-01-28T11:24:02;2.40;99.90
5796;DHT22;2924;51.458;7.046;2023-01-28T11:26:36;2.40;99.90
5796;DHT22;2924;51.458;7.046;2023-01-28T11:29:03;2.40;99.90
5796;DHT22;2924;51.458;7.046;2023-01-28T11:31:38;2.60;99.90
5796;DHT22;2924;51.458;7.046;2023-01-28T11:34:06;2.70;99.90
5796;DHT22;2924;51.458;7.046;2023-01-28T11:36:33;2.70;99.90
5796;DHT22;2924;51.458;7.046;2023-01-28T11:39:01;2.60;99.90
5796;DHT22;2924;51.458;7.046;2023-01-28T11:41:37;2.60;99.90
5796;DHT22;2924;51.458;7.046;2023-01-28T11:52:54;2.40;99.90
5796;DHT22;2924;51.458;7.046;2023-01-28T12:06:24;2.10;99.90
5796;DHT22;2924;51.458;7.046;2023-01-28T12:09:16;2.20;99.90
5796;DHT22;2924;51.458;7.046;2023-01-28T12:22:56;2.10;99.90
5796;DHT22;2924;51.458;7.046;2023-01-28T12:36:51;2.70;99.90
5796;DHT22;2924;51.458;7.046;2023-01-28T12:39:41;3.00;99.90
5796;DHT22;2924;51.458;7.046;2023-01-28T12:42:14;3.20;99.90
5796;DHT22;2924;51.458;7.046;2023-01-28T12:44:47;3.00;99.90
5796;DHT22;2924;51.458;7.046;2023-01-28T12:47:42;3.10;99.90
5796;DHT22;2924;51.458;7.046;2023-01-28T12:50:30;3.50;99.90
5796;DHT22;2924;51.458;7.046;2023-01-28T12:53:18;4.00;99.90
5796;DHT22;2924;51.458;7.046;2023-01-28T12:55:48;4.30;99.90
5796;DHT22;2924;51.458;7.046;2023-01-28T12:58:23;4.60;99.90
5796;DHT22;2924;51.458;7.046;2023-01-28T13:00:56;4.30;99.90
5796;DHT22;2924;51.458;7.046;2023-01-28T13:03:41;4.20;99.90
5796;DHT22;2924;51.458;7.046;2023-01-28T13:06:14;4.30;99.90
5796;DHT22;2924;51.458;7.046;2023-01-28T13:08:43;4.30;99.90
5796;DHT22;2924;51.458;7.046;2023-01-28T13:11:13;4.10;99.90
5796;DHT22;2924;51.458;7.046;2023-01-28T13:13:41;4.20;99.90
5796;DHT22;2924;51.458;7.046;2023-01-28T13:16:09;4.40;99.90
5796;DHT22;2924;51.458;7.046;2023-01-28T13:21:05;5.10;99.90
5796;DHT22;2924;51.458;7.046;2023-01-28T13:23:40;5.40;99.90
5796;DHT22;2924;51.458;7.046;2023-01-28T13:28:45;5.50;99.90
5796;DHT22;2924;51.458;7.046;2023-01-28T13:31:14;5.50;99.90
5796;DHT22;2924;51.458;7.046;2023-01-28T13:36:46;5.80;99.90
5796;DHT22;2924;51.458;7.046;2023-01-28T13:41:50;5.50;99.90
5796;DHT22;2924;51.458;7.046;2023-01-28T13:46:52;5.20;99.90
5796;DHT22;2924;51.458;7.046;2023-01-28T13:49:31;4.50;99.90
5796;DHT22;2924;51.458;7.046;2023-01-28T13:52:11;4.20;99.90
5796;DHT22;2924;51.458;7.046;2023-01-28T13:54:42;4.10;99.90
5796;DHT22;2924;51.458;7.046;2023-01-28T13:57:30;3.90;99.90
5796;DHT22;2924;51.458;7.046;2023-01-28T14:00:18;3.50;99.90
5796;DHT22;2924;51.458;7.046;2023-01-28T14:16:56;3.30;99.90
5796;DHT22;2924;51.458;7.046;2023-01-28T14:19:28;3.40;99.90
5796;DHT22;2924;51.458;7.046;2023-01-28T14:21:55;3.70;99.90
5796;DHT22;2924;51.458;7.046;2023-01-28T14:24:21;3.80;99.90
5796;DHT22;2924;51.458;7.046;2023-01-28T14:26:58;3.70;99.90
5796;DHT22;2924;51.458;7.046;2023-01-28T14:29:34;3.60;99.90
5796;DHT22;2924;51.458;7.046;2023-01-28T14:35:29;3.60;99.90
5796;DHT22;2924;51.458;7.046;2023-01-28T14:37:56;3.60;99.90
5796;DHT22;2924;51.458;7.046;2023-01-28T14:40:22;3.60;99.90
5796;DHT22;2924;51.458;7.046;2023-01-28T14:42:51;3.70;99.90
5796;DHT22;2924;51.458;7.046;2023-01-28T14:45:31;3.80;99.90
5796;DHT22;2924;51.458;7.046;2023-01-28T14:54:08;3.70;99.90
5796;DHT22;2924;51.458;7.046;2023-01-28T14:59:17;3.00;99.90
5796;DHT22;2924;51.458;7.046;2023-01-28T15:01:46;3.10;99.90
5796;DHT22;2924;51.458;7.046;2023-01-28T15:04:27;3.20;99.90
5796;DHT22;2924;51.458;7.046;2023-01-28T15:06:53;3.30;99.90
5796;DHT22;2924;51.458;7.046;2023-01-28T15:09:20;3.20;99.90
5796;DHT22;2924;51.458;7.046;2023-01-28T15:11:48;3.10;99.90
5796;DHT22;2924;51.458;7.046;2023-01-28T15:14:35;3.10;99.90
5796;DHT22;2924;51.458;7.046;2023-01-28T15:17:01;3.10;99.90
5796;DHT22;2924;51.458;7.046;2023-01-28T15:19:32;3.00;99.90
5796;DHT22;2924;51.458;7.046;2023-01-28T15:22:04;2.80;99.90
5796;DHT22;2924;51.458;7.046;2023-01-28T15:24:33;2.70;99.90
5796;DHT22;2924;51.458;7.046;2023-01-28T15:27:00;2.50;99.90
5796;DHT22;2924;51.458;7.046;2023-01-28T15:29:34;2.40;99.90
5796;DHT22;2924;51.458;7.046;2023-01-28T15:32:01;2.40;99.90
5796;DHT22;2924;51.458;7.046;2023-01-28T15:34:28;2.30;99.90
5796;DHT22;2924;51.458;7.046;2023-01-28T15:36:58;2.20;99.90
5796;DHT22;2924;51.458;7.046;2023-01-28T15:39:26;2.00;99.90
5796;DHT22;2924;51.458;7.046;2023-01-28T15:42:00;1.80;99.90
5796;DHT22;2924;51.458;7.046;2023-01-28T15:44:38;1.60;99.90
5796;DHT22;2924;51.458;7.046;2023-01-28T15:47:17;1.50;99.90
5796;DHT22;2924;51.458;7.046;2023-01-28T15:49:47;1.40;99.90
5796;DHT22;2924;51.458;7.046;2023-01-28T15:52:13;1.20;99.90
5796;DHT22;2924;51.458;7.046;2023-01-28T15:54:42;1.10;99.90
5796;DHT22;2924;51.458;7.046;2023-01-28T15:57:19;0.90;99.90
5796;DHT22;2924;51.458;7.046;2023-01-28T15:59:45;0.70;99.90
5796;DHT22;2924;51.458;7.046;2023-01-28T16:02:22;0.50;99.90
5796;DHT22;2924;51.458;7.046;2023-01-28T16:05:00;0.30;99.90
5796;DHT22;2924;51.458;7.046;2023-01-28T16:07:28;0.00;99.90
5796;DHT22;2924;51.458;7.046;2023-01-28T16:09:55;-0.20;99.90
5796;DHT22;2924;51.458;7.046;2023-01-28T16:12:22;-0.30;99.90
5796;DHT22;2924;51.458;7.046;2023-01-28T16:14:54;-0.50;99.90
5796;DHT22;2924;51.458;7.046;2023-01-28T16:17:25;-0.60;99.90
5796;DHT22;2924;51.458;7.046;2023-01-28T16:19:58;-0.80;99.90
5796;DHT22;2924;51.458;7.046;2023-01-28T16:22:36;-0.90;99.90
5796;DHT22;2924;51.458;7.046;2023-01-28T16:25:32;-1.10;99.90
5796;DHT22;2924;51.458;7.046;2023-01-28T16:28:13;-1.30;99.90
5796;DHT22;2924;51.458;7.046;2023-01-28T16:30:41;-1.40;99.90
5796;DHT22;2924;51.458;7.046;2023-01-28T16:33:20;-1.50;99.90
5796;DHT22;2924;51.458;7.046;2023-01-28T16:35:47;-1.60;99.90
5796;DHT22;2924;51.458;7.046;2023-01-28T16:38:13;-1.70;99.90
5796;DHT22;2924;51.458;7.046;2023-01-28T16:40:42;-1.80;99.90
5796;DHT22;2924;51.458;7.046;2023-01-28T16:43:09;-1.90;99.90
5796;DHT22;2924;51.458;7.046;2023-01-28T16:45:40;-1.90;99.90
5796;DHT22;2924;51.458;7.046;2023-01-28T16:48:05;-2.00;99.90
5796;DHT22;2924;51.458;7.046;2023-01-28T16:50:32;-2.00;99.90
5796;DHT22;2924;51.458;7.046;2023-01-28T16:52:58;-2.10;99.90
5796;DHT22;2924;51.458;7.046;2023-01-28T16:55:24;-2.20;99.90
5796;DHT22;2924;51.458;7.046;2023-01-28T16:57:55;-2.10;99.90
5796;DHT22;2924;51.458;7.046;2023-01-28T17:00:23;-2.20;99.90
5796;DHT22;2924;51.458;7.046;2023-01-28T17:02:50;-2.30;99.90
5796;DHT22;2924;51.458;7.046;2023-01-28T17:05:16;-2.30;99.90
5796;DHT22;2924;51.458;7.046;2023-01-28T17:07:42;-2.30;99.90
5796;DHT22;2924;51.458;7.046;2023-01-28T17:10:08;-2.50;99.90
5796;DHT22;2924;51.458;7.046;2023-01-28T17:12:34;-2.60;99.90
5796;DHT22;2924;51.458;7.046;2023-01-28T17:15:00;-2.70;99.90
5796;DHT22;2924;51.458;7.046;2023-01-28T17:17:27;-2.80;99.90
5796;DHT22;2924;51.458;7.046;2023-01-28T17:19:53;-2.90;99.90
5796;DHT22;2924;51.458;7.046;2023-01-28T17:22:19;-2.90;99.90
5796;DHT22;2924;51.458;7.046;2023-01-28T17:24:44;-3.00;99.90
5796;DHT22;2924;51.458;7.046;2023-01-28T17:27:10;-3.00;99.90
5796;DHT22;2924;51.458;7.046;2023-01-28T17:29:36;-3.00;99.90
5796;DHT22;2924;51.458;7.046;2023-01-28T17:32:02;-3.10;99.90
5796;DHT22;2924;51.458;7.046;2023-01-28T17:34:28;-3.20;99.90
5796;DHT22;2924;51.458;7.046;2023-01-28T17:36:53;-3.30;99.90
5796;DHT22;2924;51.458;7.046;2023-01-28T17:39:19;-3.30;99.90
5796;DHT22;2924;51.458;7.046;2023-01-28T17:41:45;-3.30;99.90
5796;DHT22;2924;51.458;7.046;2023-01-28T17:44:12;-3.40;99.90
5796;DHT22;2924;51.458;7.046;2023-01-28T17:46:40;-3.40;99.90
5796;DHT22;2924;51.458;7.046;2023-01-28T17:49:06;-3.40;99.90
5796;DHT22;2924;51.458;7.046;2023-01-28T17:51:32;-3.40;99.90
5796;DHT22;2924;51.458;7.046;2023-01-28T17:53:58;-3.50;99.90
5796;DHT22;2924;51.458;7.046;2023-01-28T17:56:26;-3.50;99.90
5796;DHT22;2924;51.458;7.046;2023-01-28T17:58:53;-3.50;99.90
5796;DHT22;2924;51.458;7.046;2023-01-28T18:01:20;-3.40;99.90
5796;DHT22;2924;51.458;7.046;2023-01-28T18:03:46;-3.30;99.90
5796;DHT22;2924;51.458;7.046;2023-01-28T18:06:12;-3.30;99.90
5796;DHT22;2924;51.458;7.046;2023-01-28T18:08:37;-3.30;99.90
5796;DHT22;2924;51.458;7.046;2023-01-28T18:11:09;-3.30;99.90
5796;DHT22;2924;51.458;7.046;2023-01-28T18:13:39;-3.40;99.90
5796;DHT22;2924;51.458;7.046;2023-01-28T18:16:06;-3.40;99.90
5796;DHT22;2924;51.458;7.046;2023-01-28T18:18:33;-3.40;99.90
5796;DHT22;2924;51.458;7.046;2023-01-28T18:21:00;-3.40;99.90
5796;DHT22;2924;51.458;7.046;2023-01-28T18:23:26;-3.30;99.90
5796;DHT22;2924;51.458;7.046;2023-01-28T18:25:59;-3.30;99.90
5796;DHT22;2924;51.458;7.046;2023-01-28T18:28:26;-3.30;99.90
5796;DHT22;2924;51.458;7.046;2023-01-28T18:30:52;-3.40;99.90
5796;DHT22;2924;51.458;7.046;2023-01-28T18:33:19;-3.50;99.90